Moormerland — V2BS — position and weather

sailwx.info

Track history (hours):
 
Tides and Currents Weather Stations Pressure Air Temp Water Temp Dewpoint Dewpoint Depression Visibility Wind Speed Wind Dir Waves Ship Positions

Moormerland

Last reported at 2018-Feb-25 11:30 UTC. Time now 2018-Feb-25 11:44 UTC.
Position N 38°40' W 009°25'.

Length 89 m; draft 4.4 m.

Type: Cargo ship. MMSI: 304785000.

Date/timePositionNaut miles runAvg speedWind from/ knotsBaromVisibWave heightAir tempDewpointWater temp
2018-Feb-25 11:30N 38°40' W 009°25'0 0.0
2018-Feb-25 11:00N 38°40' W 009°25'0 0.0
2018-Feb-25 10:30N 38°40' W 009°25'0 0.0
2018-Feb-25 10:01N 38°40' W 009°25'0 0.0
2018-Feb-25 09:31N 38°40' W 009°25'0 0.0
2018-Feb-25 09:01N 38°40' W 009°25'0 0.0
2018-Feb-25 08:31N 38°40' W 009°25'0 0.0
2018-Feb-25 08:01N 38°40' W 009°25'2 4.0
2018-Feb-25 07:31N 38°39' W 009°26'3 5.6
2018-Feb-25 07:00N 38°37' W 009°29'3 5.7
2018-Feb-25 06:30N 38°36' W 009°32'3 5.4
2018-Feb-25 06:01N 38°35' W 009°36'3 5.3
2018-Feb-25 05:30N 38°35' W 009°39'3 5.2
2018-Feb-25 05:00N 38°34' W 009°42'3 5.3
2018-Feb-25 04:30N 38°33' W 009°45'3 5.3
2018-Feb-25 04:01N 38°33' W 009°49'3 5.7
2018-Feb-25 03:31N 38°32' W 009°52'3 5.5
2018-Feb-25 03:00N 38°31' W 009°56'3 5.4
2018-Feb-25 02:29N 38°30' W 009°59'2 4.7
2018-Feb-25 02:01N 38°30' W 010°02'3 5.8
2018-Feb-25 01:30N 38°33' W 010°03'3 5.8
2018-Feb-25 01:00N 38°36' W 010°03'3 5.8
2018-Feb-25 00:28N 38°39' W 010°04'3 5.8
2018-Feb-25 00:00N 38°42' W 010°05'3 5.9
2018-Feb-24 23:30N 38°45' W 010°05'3 5.9
2018-Feb-24 23:00N 38°47' W 010°05'3 6.1
2018-Feb-24 22:30N 38°51' W 010°05'3 6.3
2018-Feb-24 22:00N 38°54' W 010°05'3 6.8
2018-Feb-24 21:30N 38°57' W 010°05'3 6.7
2018-Feb-24 21:00N 39°00' W 010°05'3 6.4
2018-Feb-24 20:30N 39°04' W 010°05'3 6.0
2018-Feb-24 20:00N 39°07' W 010°05'3 6.0
2018-Feb-24 19:30N 39°10' W 010°05'3 5.9
2018-Feb-24 19:00N 39°13' W 010°05'3 6.0
2018-Feb-24 18:28N 39°16' W 010°05'  
2018-Feb-21 18:31N 47°36' W 006°47'191 7.0
2018-Feb-20 15:19N 49°49' W 003°20'6 8.8
2018-Feb-20 14:38N 49°53' W 003°12'8 8.2
2018-Feb-20 13:38N 49°57' W 003°01'2 7.2
2018-Feb-20 13:18N 49°57' W 002°57'3 6.6
2018-Feb-20 12:48N 49°58' W 002°53'33 5.4
2018-Feb-20 06:41N 50°08' W 002°03'2 8.9
2018-Feb-20 06:28N 50°09' W 002°00'4 9.5
2018-Feb-20 06:00N 50°10' W 001°54'510.2
2018-Feb-20 05:31N 50°11' W 001°46'610.6
2018-Feb-20 04:59N 50°13' W 001°38'510.8
2018-Feb-20 04:30N 50°14' W 001°30'510.7
2018-Feb-20 04:00N 50°16' W 001°22'39 7.0
2018-Feb-19 22:30N 50°27' W 000°24'3 5.3
2018-Feb-19 22:00N 50°28' W 000°20'3 5.8
2018-Feb-19 21:31N 50°29' W 000°16'3 6.4
2018-Feb-19 20:58N 50°30' W 000°10'3 7.2
2018-Feb-19 20:30N 50°31' W 000°05'4 7.8
2018-Feb-19 20:00N 50°32' E 000°00'4 8.3
2018-Feb-19 19:30N 50°33' E 000°07'4 8.7
2018-Feb-19 18:59N 50°34' E 000°14'8 9.1
2018-Feb-19 18:05N 50°37' E 000°26'1 9.1
2018-Feb-19 18:00N 50°37' E 000°27'4 8.8
2018-Feb-19 17:30N 50°38' E 000°34'4 8.6
2018-Feb-19 17:00N 50°41' E 000°39'4 8.2
2018-Feb-19 16:30N 50°43' E 000°44'4 7.7
2018-Feb-19 16:00N 50°45' E 000°49'4 7.1
2018-Feb-19 15:30N 50°47' E 000°54'3 6.6
2018-Feb-19 15:00N 50°49' E 000°58'3 6.1
2018-Feb-19 14:30N 50°51' E 001°02'4 5.6
2018-Feb-19 13:43N 50°54' E 001°08'1 5.7
2018-Feb-19 13:30N 50°55' E 001°09'3 5.4
2018-Feb-19 12:54N 50°57' E 001°13'2 5.5
2018-Feb-19 12:30N 50°58' E 001°16'3 5.9
2018-Feb-19 12:00N 51°00' E 001°19'3 6.7
2018-Feb-19 11:30N 51°02' E 001°23'4 8.2
2018-Feb-19 11:00N 51°05' E 001°28'5 9.6
2018-Feb-19 10:30N 51°08' E 001°34'510.0
2018-Feb-19 10:00N 51°11' E 001°40'5 9.8
2018-Feb-19 09:30N 51°16' E 001°41'5 9.6
2018-Feb-19 09:00N 51°21' E 001°42'4 8.5
2018-Feb-19 08:30N 51°25' E 001°44'4 8.2
2018-Feb-19 08:00N 51°29' E 001°44'4 7.5
2018-Feb-19 07:30N 51°33' E 001°45'4 7.0
2018-Feb-19 07:00N 51°36' E 001°45'3 6.5
2018-Feb-19 06:30N 51°40' E 001°45'3 6.2
2018-Feb-19 06:00N 51°43' E 001°45'3 6.1
2018-Feb-19 05:30N 51°46' E 001°45'3 5.8
2018-Feb-19 05:00N 51°49' E 001°45'3 5.5
2018-Feb-19 04:30N 51°51' E 001°45'3 5.4
2018-Feb-19 04:00N 51°54' E 001°45'3 5.5
2018-Feb-19 03:30N 51°57' E 001°45'3 5.7
2018-Feb-19 03:00N 51°60' E 001°46'3 6.0
2018-Feb-19 02:30N 52°03' E 001°46'3 6.4
2018-Feb-19 02:00N 52°06' E 001°47'4 7.2
2018-Feb-19 01:30N 52°09' E 001°48'36 9.2
2018-Feb-18 21:34N 52°46' E 001°53'210.6
2018-Feb-18 21:23N 52°47' E 001°51'510.4
2018-Feb-18 20:56N 52°50' E 001°44'510.4
2018-Feb-18 20:29N 52°52' E 001°38'510.2
2018-Feb-18 19:59N 52°55' E 001°32'510.1
2018-Feb-18 19:27N 52°59' E 001°24'4 9.5
2018-Feb-18 18:59N 53°01' E 001°19'5 8.6
2018-Feb-18 18:24N 53°03' E 001°11'46 6.9
2018-Feb-18 11:45N 53°33' E 000°12'3 9.0
2018-Feb-18 11:23N 53°34' E 000°06'411.0
2018-Feb-18 11:00N 53°35' E 000°00'611.3
2018-Feb-18 10:30N 53°38' W 000°08'510.5
2018-Feb-18 10:00N 53°42' W 000°14'4 8.6
2018-Feb-18 09:30N 53°43' W 000°21'5 9.4
2018-Feb-18 09:00N 53°42' W 000°29'3 6.3
2018-Feb-18 08:31N 53°42' W 000°34'3 4.6
2018-Feb-18 07:53N 53°43' W 000°39'3 0.3
2018-Feb-17 21:46N 53°42' W 000°44'  
Track history (hours):
 
Tides and Currents Weather Stations Pressure Air Temp Water Temp Dewpoint Dewpoint Depression Visibility Wind Speed Wind Dir Waves Ship Positions

Moormerland

Last reported at 2018-Feb-25 11:30 UTC. Time now 2018-Feb-25 11:44 UTC.
Position N 38°40' W 009°25'.

Length 89 m; draft 4.4 m.

Type: Cargo ship. MMSI: 304785000.

Date/timePositionNaut miles runAvg speedWind from/ knotsBaromVisibWave heightAir tempDewpointWater temp
2018-Feb-25 11:30N 38°40' W 009°25'0 0.0
2018-Feb-25 11:00N 38°40' W 009°25'0 0.0
2018-Feb-25 10:30N 38°40' W 009°25'0 0.0
2018-Feb-25 10:01N 38°40' W 009°25'0 0.0
2018-Feb-25 09:31N 38°40' W 009°25'0 0.0
2018-Feb-25 09:01N 38°40' W 009°25'0 0.0
2018-Feb-25 08:31N 38°40' W 009°25'0 0.0
2018-Feb-25 08:01N 38°40' W 009°25'2 4.0
2018-Feb-25 07:31N 38°39' W 009°26'3 5.6
2018-Feb-25 07:00N 38°37' W 009°29'3 5.7
2018-Feb-25 06:30N 38°36' W 009°32'3 5.4
2018-Feb-25 06:01N 38°35' W 009°36'3 5.3
2018-Feb-25 05:30N 38°35' W 009°39'3 5.2
2018-Feb-25 05:00N 38°34' W 009°42'3 5.3
2018-Feb-25 04:30N 38°33' W 009°45'3 5.3
2018-Feb-25 04:01N 38°33' W 009°49'3 5.7
2018-Feb-25 03:31N 38°32' W 009°52'3 5.5
2018-Feb-25 03:00N 38°31' W 009°56'3 5.4
2018-Feb-25 02:29N 38°30' W 009°59'2 4.7
2018-Feb-25 02:01N 38°30' W 010°02'3 5.8
2018-Feb-25 01:30N 38°33' W 010°03'3 5.8
2018-Feb-25 01:00N 38°36' W 010°03'3 5.8
2018-Feb-25 00:28N 38°39' W 010°04'3 5.8
2018-Feb-25 00:00N 38°42' W 010°05'3 5.9
2018-Feb-24 23:30N 38°45' W 010°05'3 5.9
2018-Feb-24 23:00N 38°47' W 010°05'3 6.1
2018-Feb-24 22:30N 38°51' W 010°05'3 6.3
2018-Feb-24 22:00N 38°54' W 010°05'3 6.8
2018-Feb-24 21:30N 38°57' W 010°05'3 6.7
2018-Feb-24 21:00N 39°00' W 010°05'3 6.4
2018-Feb-24 20:30N 39°04' W 010°05'3 6.0
2018-Feb-24 20:00N 39°07' W 010°05'3 6.0
2018-Feb-24 19:30N 39°10' W 010°05'3 5.9
2018-Feb-24 19:00N 39°13' W 010°05'3 6.0
2018-Feb-24 18:28N 39°16' W 010°05'  
2018-Feb-21 18:31N 47°36' W 006°47'191 7.0
2018-Feb-20 15:19N 49°49' W 003°20'6 8.8
2018-Feb-20 14:38N 49°53' W 003°12'8 8.2
2018-Feb-20 13:38N 49°57' W 003°01'2 7.2
2018-Feb-20 13:18N 49°57' W 002°57'3 6.6
2018-Feb-20 12:48N 49°58' W 002°53'33 5.4
2018-Feb-20 06:41N 50°08' W 002°03'2 8.9
2018-Feb-20 06:28N 50°09' W 002°00'4 9.5
2018-Feb-20 06:00N 50°10' W 001°54'510.2
2018-Feb-20 05:31N 50°11' W 001°46'610.6
2018-Feb-20 04:59N 50°13' W 001°38'510.8
2018-Feb-20 04:30N 50°14' W 001°30'510.7
2018-Feb-20 04:00N 50°16' W 001°22'39 7.0
2018-Feb-19 22:30N 50°27' W 000°24'3 5.3
2018-Feb-19 22:00N 50°28' W 000°20'3 5.8
2018-Feb-19 21:31N 50°29' W 000°16'3 6.4
2018-Feb-19 20:58N 50°30' W 000°10'3 7.2
2018-Feb-19 20:30N 50°31' W 000°05'4 7.8
2018-Feb-19 20:00N 50°32' E 000°00'4 8.3
2018-Feb-19 19:30N 50°33' E 000°07'4 8.7
2018-Feb-19 18:59N 50°34' E 000°14'8 9.1
2018-Feb-19 18:05N 50°37' E 000°26'1 9.1
2018-Feb-19 18:00N 50°37' E 000°27'4 8.8
2018-Feb-19 17:30N 50°38' E 000°34'4 8.6
2018-Feb-19 17:00N 50°41' E 000°39'4 8.2
2018-Feb-19 16:30N 50°43' E 000°44'4 7.7
2018-Feb-19 16:00N 50°45' E 000°49'4 7.1
2018-Feb-19 15:30N 50°47' E 000°54'3 6.6
2018-Feb-19 15:00N 50°49' E 000°58'3 6.1
2018-Feb-19 14:30N 50°51' E 001°02'4 5.6
2018-Feb-19 13:43N 50°54' E 001°08'1 5.7
2018-Feb-19 13:30N 50°55' E 001°09'3 5.4
2018-Feb-19 12:54N 50°57' E 001°13'2 5.5
2018-Feb-19 12:30N 50°58' E 001°16'3 5.9
2018-Feb-19 12:00N 51°00' E 001°19'3 6.7
2018-Feb-19 11:30N 51°02' E 001°23'4 8.2
2018-Feb-19 11:00N 51°05' E 001°28'5 9.6
2018-Feb-19 10:30N 51°08' E 001°34'510.0
2018-Feb-19 10:00N 51°11' E 001°40'5 9.8
2018-Feb-19 09:30N 51°16' E 001°41'5 9.6
2018-Feb-19 09:00N 51°21' E 001°42'4 8.5
2018-Feb-19 08:30N 51°25' E 001°44'4 8.2
2018-Feb-19 08:00N 51°29' E 001°44'4 7.5
2018-Feb-19 07:30N 51°33' E 001°45'4 7.0
2018-Feb-19 07:00N 51°36' E 001°45'3 6.5
2018-Feb-19 06:30N 51°40' E 001°45'3 6.2
2018-Feb-19 06:00N 51°43' E 001°45'3 6.1
2018-Feb-19 05:30N 51°46' E 001°45'3 5.8
2018-Feb-19 05:00N 51°49' E 001°45'3 5.5
2018-Feb-19 04:30N 51°51' E 001°45'3 5.4
2018-Feb-19 04:00N 51°54' E 001°45'3 5.5
2018-Feb-19 03:30N 51°57' E 001°45'3 5.7
2018-Feb-19 03:00N 51°60' E 001°46'3 6.0
2018-Feb-19 02:30N 52°03' E 001°46'3 6.4
2018-Feb-19 02:00N 52°06' E 001°47'4 7.2
2018-Feb-19 01:30N 52°09' E 001°48'36 9.2
2018-Feb-18 21:34N 52°46' E 001°53'210.6
2018-Feb-18 21:23N 52°47' E 001°51'510.4
2018-Feb-18 20:56N 52°50' E 001°44'510.4
2018-Feb-18 20:29N 52°52' E 001°38'510.2
2018-Feb-18 19:59N 52°55' E 001°32'510.1
2018-Feb-18 19:27N 52°59' E 001°24'4 9.5
2018-Feb-18 18:59N 53°01' E 001°19'5 8.6
2018-Feb-18 18:24N 53°03' E 001°11'46 6.9
2018-Feb-18 11:45N 53°33' E 000°12'3 9.0
2018-Feb-18 11:23N 53°34' E 000°06'411.0
2018-Feb-18 11:00N 53°35' E 000°00'611.3
2018-Feb-18 10:30N 53°38' W 000°08'510.5
2018-Feb-18 10:00N 53°42' W 000°14'4 8.6
2018-Feb-18 09:30N 53°43' W 000°21'5 9.4
2018-Feb-18 09:00N 53°42' W 000°29'3 6.3
2018-Feb-18 08:31N 53°42' W 000°34'3 4.6
2018-Feb-18 07:53N 53°43' W 000°39'3 0.3
2018-Feb-17 21:46N 53°42' W 000°44'  

Dump ship's entire track history